createdAt,value
2017-05-13T00:01:50.049Z,12.22
2017-05-13T00:04:18.742Z,13.54
2017-05-13T00:06:47.058Z,9.30
2017-05-13T00:09:16.354Z,7.74
2017-05-13T00:11:44.284Z,9.94
2017-05-13T00:14:12.625Z,8.24
2017-05-13T00:16:40.587Z,11.50
2017-05-13T00:19:09.258Z,13.44
2017-05-13T00:21:37.196Z,9.54
2017-05-13T00:24:06.284Z,9.88
2017-05-13T00:26:35.166Z,8.92
2017-05-13T00:29:04.204Z,9.74
2017-05-13T00:31:33.282Z,8.76
2017-05-13T00:34:01.582Z,9.74
2017-05-13T00:36:29.511Z,10.56
2017-05-13T00:38:57.982Z,10.48
2017-05-13T00:41:26.860Z,12.32
2017-05-13T00:43:55.743Z,12.76
2017-05-13T00:46:24.101Z,12.98
2017-05-13T00:48:52.035Z,8.58
2017-05-13T00:51:19.980Z,9.24
2017-05-13T00:53:48.351Z,9.04
2017-05-13T00:56:17.048Z,9.48
2017-05-13T00:58:45.930Z,9.04
2017-05-13T01:01:15.013Z,10.30
2017-05-13T01:03:43.675Z,8.82
2017-05-13T01:06:11.974Z,9.98
2017-05-13T01:08:40.327Z,9.62
2017-05-13T01:11:09.211Z,9.16
2017-05-13T01:13:37.144Z,9.48
2017-05-13T01:16:05.139Z,9.98
2017-05-13T01:18:33.434Z,9.92
2017-05-13T01:21:01.357Z,11.00
2017-05-13T01:23:29.710Z,9.56
2017-05-13T01:25:57.641Z,8.98
2017-05-13T01:28:25.939Z,9.60
2017-05-13T01:30:54.663Z,9.40
2017-05-13T01:33:23.570Z,8.12
2017-05-13T01:35:52.450Z,8.68
2017-05-13T01:38:20.814Z,8.68
2017-05-13T01:40:49.716Z,9.78
2017-05-13T01:43:18.771Z,10.30
2017-05-13T01:45:47.149Z,11.00
2017-05-13T01:48:15.823Z,9.90
2017-05-13T01:50:44.118Z,10.36
2017-05-13T01:53:13.082Z,10.38
2017-05-13T01:55:41.010Z,9.64
2017-05-13T01:58:09.312Z,9.78
2017-05-13T02:00:38.416Z,10.38
2017-05-13T02:03:06.731Z,11.56
2017-05-13T02:05:35.406Z,13.38
2017-05-13T02:08:04.342Z,12.50
2017-05-13T02:10:32.640Z,12.64
2017-05-13T02:13:01.515Z,12.72
2017-05-13T02:15:30.918Z,12.08
2017-05-13T02:17:59.811Z,11.14
2017-05-13T02:20:28.693Z,9.94
2017-05-13T02:22:56.670Z,11.16
2017-05-13T02:25:24.595Z,10.10
2017-05-13T02:27:53.650Z,10.12
2017-05-13T02:30:23.091Z,8.56
2017-05-13T02:32:51.401Z,10.40
2017-05-13T02:35:20.083Z,9.84
2017-05-13T02:37:48.966Z,10.78
2017-05-13T02:40:18.011Z,10.46
2017-05-13T02:42:46.310Z,9.52
2017-05-13T02:45:15.769Z,9.16
2017-05-13T02:47:44.055Z,8.16
2017-05-13T02:50:12.931Z,8.54
2017-05-13T02:52:41.651Z,9.78
2017-05-13T02:55:09.566Z,8.90
2017-05-13T02:57:37.874Z,8.66
2017-05-13T03:00:06.893Z,9.58
2017-05-13T03:02:35.776Z,10.66
2017-05-13T03:05:04.447Z,9.74
2017-05-13T03:07:33.554Z,11.20
2017-05-13T03:10:02.442Z,10.54
2017-05-13T03:12:31.315Z,9.70
2017-05-13T03:15:00.242Z,9.66
2017-05-13T03:17:29.128Z,8.92
2017-05-13T03:19:57.787Z,8.98
2017-05-13T03:22:26.883Z,10.16
2017-05-13T03:24:55.762Z,9.62
2017-05-13T03:27:24.635Z,8.62
2017-05-13T03:29:53.376Z,7.20
2017-05-13T03:32:21.322Z,6.84
2017-05-13T03:34:49.629Z,6.98
2017-05-13T03:37:17.622Z,7.28
2017-05-13T03:39:46.292Z,8.04
2017-05-13T03:42:14.587Z,8.32
2017-05-13T03:44:42.936Z,8.62
2017-05-13T03:47:11.227Z,8.08
2017-05-13T03:49:40.103Z,7.58
2017-05-13T03:52:08.912Z,8.10
2017-05-13T03:54:36.835Z,8.40
2017-05-13T03:57:05.136Z,8.96
2017-05-13T03:59:33.484Z,10.10
2017-05-13T04:02:01.784Z,10.12
2017-05-13T04:04:30.087Z,17.06
2017-05-13T04:06:58.068Z,11.44
2017-05-13T04:09:27.106Z,10.62
2017-05-13T04:11:55.986Z,10.08
2017-05-13T04:14:24.919Z,9.02
2017-05-13T04:16:53.236Z,11.22
2017-05-13T04:19:21.555Z,11.30
2017-05-13T04:21:49.559Z,10.48
2017-05-13T04:24:17.868Z,10.08
2017-05-13T04:26:46.540Z,8.94
2017-05-13T04:29:14.903Z,9.24
2017-05-13T04:31:43.199Z,7.90
2017-05-13T04:34:11.125Z,8.46
2017-05-13T04:36:39.811Z,8.08
2017-05-13T04:39:08.568Z,7.04
2017-05-13T04:41:36.500Z,7.82
2017-05-13T04:44:04.878Z,9.38
2017-05-13T04:46:33.763Z,8.18
2017-05-13T04:49:02.050Z,8.14
2017-05-13T04:51:31.155Z,8.20
2017-05-13T04:53:59.084Z,8.44
2017-05-13T04:56:27.022Z,8.26
2017-05-13T04:58:55.354Z,8.32
2017-05-13T05:01:24.043Z,7.70
2017-05-13T05:03:52.355Z,9.02
2017-05-13T05:06:21.627Z,8.30
2017-05-13T05:08:49.955Z,8.34
2017-05-13T05:11:18.272Z,8.16
2017-05-13T05:13:47.598Z,7.72
2017-05-13T05:16:15.902Z,8.86
2017-05-13T05:18:44.937Z,7.68
2017-05-13T05:21:13.315Z,7.52
2017-05-13T05:23:41.242Z,9.20
2017-05-13T05:26:09.535Z,8.32
2017-05-13T05:28:37.882Z,7.94
2017-05-13T05:31:06.766Z,8.76
2017-05-13T05:33:34.690Z,7.92
2017-05-13T05:36:03.092Z,8.00
2017-05-13T05:38:31.008Z,7.46
2017-05-13T05:40:59.317Z,7.64
2017-05-13T05:43:27.296Z,7.54
2017-05-13T05:45:55.230Z,7.12
2017-05-13T05:48:24.270Z,7.40
2017-05-13T05:50:52.623Z,8.34
2017-05-13T05:53:20.942Z,6.72
2017-05-13T05:55:49.253Z,6.62
2017-05-13T05:58:18.218Z,6.58
2017-05-13T06:00:46.510Z,5.80
2017-05-13T06:03:14.799Z,5.34
2017-05-13T06:05:43.774Z,4.90
2017-05-13T06:08:12.439Z,5.38
2017-05-13T06:10:41.319Z,5.28
2017-05-13T06:13:10.247Z,4.66
2017-05-13T06:15:38.555Z,5.00
2017-05-13T06:18:07.604Z,6.30
2017-05-13T06:20:36.555Z,4.46
2017-05-13T06:23:04.846Z,4.32
2017-05-13T06:25:33.147Z,4.56
2017-05-13T06:28:01.127Z,4.88
2017-05-13T06:30:29.423Z,4.28
2017-05-13T06:32:57.723Z,5.04
2017-05-13T06:35:26.811Z,4.56
2017-05-13T06:37:55.681Z,4.72
2017-05-13T06:40:24.359Z,4.54
2017-05-13T06:42:52.891Z,4.68
2017-05-13T06:45:20.848Z,3.28
2017-05-13T06:47:49.739Z,4.20
2017-05-13T06:50:18.500Z,3.52
2017-05-13T06:52:46.429Z,3.60
2017-05-13T06:55:14.347Z,3.50
2017-05-13T06:57:42.691Z,3.98
2017-05-13T07:00:10.615Z,3.32
2017-05-13T07:02:39.659Z,3.00
2017-05-13T07:05:08.894Z,2.72
2017-05-13T07:07:37.946Z,3.36
2017-05-13T07:10:06.246Z,3.36
2017-05-13T07:12:34.594Z,2.50
2017-05-13T07:15:03.630Z,3.06
2017-05-13T07:17:31.927Z,2.58
2017-05-13T07:20:00.702Z,3.34
2017-05-13T07:22:29.581Z,3.38
2017-05-13T07:24:58.618Z,3.20
2017-05-13T07:27:26.966Z,2.62
2017-05-13T07:29:54.891Z,2.18
2017-05-13T07:32:23.202Z,2.24
2017-05-13T07:34:51.568Z,1.86
2017-05-13T07:37:20.470Z,2.50
2017-05-13T07:39:48.406Z,2.32
2017-05-13T07:42:16.762Z,1.94
2017-05-13T07:44:45.427Z,2.26
2017-05-13T07:47:13.728Z,1.94
2017-05-13T07:49:43.100Z,2.10
2017-05-13T07:52:11.974Z,1.90
2017-05-13T07:54:40.259Z,2.18
2017-05-13T07:57:08.621Z,2.18
2017-05-13T07:59:37.507Z,2.14
2017-05-13T08:02:06.176Z,2.00
2017-05-13T08:04:34.523Z,2.20
2017-05-13T08:07:03.393Z,3.42
2017-05-13T08:09:32.268Z,2.26
2017-05-13T08:12:00.987Z,2.52
2017-05-13T08:14:29.279Z,1.94
2017-05-13T08:16:58.151Z,2.38
2017-05-13T08:19:26.486Z,1.98
2017-05-13T08:21:54.406Z,2.26
2017-05-13T08:24:22.347Z,1.54
2017-05-13T08:26:51.209Z,2.04
2017-05-13T08:29:20.126Z,1.82
2017-05-13T08:31:49.061Z,2.00
2017-05-13T08:34:17.054Z,2.00
2017-05-13T08:36:45.358Z,1.70
2017-05-13T08:39:13.652Z,2.04
2017-05-13T08:41:42.578Z,2.10
2017-05-13T08:44:11.459Z,1.98
2017-05-13T08:46:40.126Z,2.30
2017-05-13T08:49:08.463Z,1.94
2017-05-13T08:51:36.795Z,2.10
2017-05-13T08:54:04.715Z,2.20
2017-05-13T08:56:33.063Z,1.92
2017-05-13T08:59:02.098Z,1.80
2017-05-13T09:01:30.974Z,1.90
2017-05-13T09:04:00.350Z,2.06
2017-05-13T09:06:28.267Z,1.70
2017-05-13T09:08:56.559Z,1.76
2017-05-13T09:11:25.520Z,1.82
2017-05-13T09:13:53.814Z,2.40
2017-05-13T09:16:22.103Z,2.12
2017-05-13T09:18:51.198Z,2.52
2017-05-13T09:21:19.503Z,2.08
2017-05-13T09:23:48.399Z,2.92
2017-05-13T09:26:17.336Z,2.60
2017-05-13T09:28:46.702Z,2.48
2017-05-13T09:31:15.569Z,2.38
2017-05-13T09:33:43.839Z,2.48
2017-05-13T09:36:11.765Z,2.48
2017-05-13T09:38:39.682Z,1.88
2017-05-13T09:41:08.633Z,3.08
2017-05-13T09:43:37.534Z,2.10
2017-05-13T09:46:06.194Z,2.22
2017-05-13T09:48:34.983Z,2.12
2017-05-13T09:51:03.866Z,2.56
2017-05-13T09:53:32.530Z,2.06
2017-05-13T09:56:00.503Z,2.18
2017-05-13T09:58:28.795Z,2.42
2017-05-13T10:00:57.078Z,2.12
2017-05-13T10:03:25.487Z,2.08
2017-05-13T10:05:53.425Z,1.68
2017-05-13T10:08:22.111Z,1.88
2017-05-13T10:10:50.562Z,2.42
2017-05-13T10:13:19.235Z,1.52
2017-05-13T10:15:49.005Z,2.50
2017-05-13T10:18:17.754Z,1.80
2017-05-13T10:20:45.674Z,1.70
2017-05-13T10:23:13.966Z,1.30
2017-05-13T10:25:41.939Z,1.32
2017-05-13T10:28:10.231Z,1.00
2017-05-13T10:30:38.155Z,1.36
2017-05-13T10:33:07.029Z,1.06
2017-05-13T10:35:35.327Z,1.04
2017-05-13T10:38:04.359Z,0.98
2017-05-13T10:40:32.704Z,1.44
2017-05-13T10:43:00.623Z,1.10
2017-05-13T10:45:29.283Z,1.10
2017-05-13T10:47:57.629Z,1.60
2017-05-13T10:50:25.928Z,1.38
2017-05-13T10:52:53.850Z,0.98
2017-05-13T10:55:22.541Z,0.80
2017-05-13T10:57:50.474Z,1.54
2017-05-13T11:00:18.795Z,1.02
2017-05-13T11:02:47.784Z,1.20
2017-05-13T11:05:16.086Z,1.06
2017-05-13T11:07:44.804Z,1.50
2017-05-13T11:10:13.915Z,1.20
2017-05-13T11:12:42.210Z,1.40
2017-05-13T11:15:10.142Z,1.46
2017-05-13T11:17:38.518Z,1.80
2017-05-13T11:20:06.465Z,1.20
2017-05-13T11:22:34.764Z,1.76
2017-05-13T11:25:03.128Z,0.90
2017-05-13T11:27:31.049Z,1.44
2017-05-13T11:29:59.350Z,3.34
2017-05-13T11:32:27.714Z,1.54
2017-05-13T11:34:56.008Z,1.44
2017-05-13T11:37:25.050Z,1.34
2017-05-13T11:39:53.398Z,1.38
2017-05-13T11:42:21.324Z,1.06
2017-05-13T11:44:49.638Z,1.70
2017-05-13T11:47:17.954Z,0.96
2017-05-13T11:49:45.874Z,1.42
2017-05-13T11:52:14.534Z,1.10
2017-05-13T11:54:43.030Z,1.16
2017-05-13T11:57:11.314Z,0.84
2017-05-13T11:59:39.987Z,1.10
2017-05-13T12:02:09.074Z,1.26
2017-05-13T12:04:37.958Z,0.56
2017-05-13T12:07:07.002Z,1.16
2017-05-13T12:09:35.116Z,0.74
2017-05-13T12:12:03.402Z,0.82
2017-05-13T12:14:31.698Z,0.92
2017-05-13T12:17:00.622Z,1.10
2017-05-13T12:19:28.911Z,1.04
2017-05-13T12:21:57.209Z,1.10
2017-05-13T12:24:25.178Z,1.92
2017-05-13T12:26:53.483Z,1.00
2017-05-13T12:29:22.162Z,1.00
2017-05-13T12:31:50.508Z,1.30
2017-05-13T12:34:19.568Z,0.74
2017-05-13T12:36:47.900Z,1.10
2017-05-13T12:39:16.014Z,0.96
2017-05-13T12:41:44.679Z,0.56
2017-05-13T12:44:12.966Z,0.62
2017-05-13T12:46:41.294Z,0.60
2017-05-13T12:49:09.583Z,0.76
2017-05-13T12:51:37.875Z,0.80
2017-05-13T12:54:06.822Z,0.70
2017-05-13T12:56:35.490Z,1.00
2017-05-13T12:59:03.782Z,0.88
2017-05-13T13:01:32.856Z,0.72
2017-05-13T13:04:01.734Z,0.82
2017-05-13T13:06:30.390Z,0.76
2017-05-13T13:08:59.478Z,0.98
2017-05-13T13:11:27.447Z,0.88
2017-05-13T13:13:56.158Z,0.70
2017-05-13T13:16:24.219Z,0.98
2017-05-13T13:18:52.507Z,0.90
2017-05-13T13:21:20.454Z,0.80
2017-05-13T13:23:48.835Z,0.90
2017-05-13T13:26:17.762Z,0.74
2017-05-13T13:28:46.640Z,0.90
2017-05-13T13:31:14.614Z,0.90
2017-05-13T13:33:43.275Z,0.82
2017-05-13T13:36:12.157Z,0.68
2017-05-13T13:38:40.490Z,0.90
2017-05-13T13:41:09.522Z,0.90
2017-05-13T13:43:37.819Z,1.20
2017-05-13T13:46:06.190Z,0.98
2017-05-13T13:48:35.234Z,1.04
2017-05-13T13:51:03.162Z,0.80
2017-05-13T13:53:31.550Z,0.74
2017-05-13T13:55:59.470Z,1.00
2017-05-13T13:58:28.163Z,0.80
2017-05-13T14:00:57.089Z,1.08
2017-05-13T14:03:25.966Z,1.00
2017-05-13T14:05:53.893Z,0.88
2017-05-13T14:08:22.990Z,0.98
2017-05-13T14:10:51.303Z,1.28
2017-05-13T14:13:19.236Z,0.70
2017-05-13T14:15:47.600Z,0.86
2017-05-13T14:18:16.490Z,1.16
2017-05-13T14:20:46.266Z,0.92
2017-05-13T14:23:14.622Z,1.36
2017-05-13T14:25:42.539Z,0.98
2017-05-13T14:28:11.418Z,1.10
2017-05-13T14:30:40.341Z,1.40
2017-05-13T14:33:09.001Z,1.10
2017-05-13T14:35:37.295Z,1.56
2017-05-13T14:38:05.258Z,1.00
2017-05-13T14:40:33.550Z,1.18
2017-05-13T14:43:01.496Z,1.50
2017-05-13T14:45:29.845Z,1.72
2017-05-13T14:47:57.763Z,1.58
2017-05-13T14:50:26.058Z,1.18
2017-05-13T14:52:55.430Z,0.96
2017-05-13T14:55:24.301Z,0.90
2017-05-13T14:57:52.602Z,1.32
2017-05-13T15:00:21.455Z,1.20
2017-05-13T15:02:50.529Z,1.42
2017-05-13T15:05:18.471Z,1.08
2017-05-13T15:07:46.818Z,1.20
2017-05-13T15:10:15.858Z,1.04
2017-05-13T15:12:44.890Z,0.80
2017-05-13T15:15:12.947Z,1.06
2017-05-13T15:17:41.658Z,1.16
2017-05-13T15:20:09.950Z,1.12
2017-05-13T15:22:38.303Z,1.00
2017-05-13T15:25:07.511Z,1.70
2017-05-13T15:27:35.479Z,1.30
2017-05-13T15:30:03.827Z,0.80
2017-05-13T15:32:32.489Z,1.14
2017-05-13T15:35:00.827Z,1.00
2017-05-13T15:37:29.221Z,1.10
2017-05-13T15:39:58.114Z,0.76
2017-05-13T15:42:26.779Z,1.00
2017-05-13T15:44:55.702Z,1.14
2017-05-13T15:47:24.362Z,1.10
2017-05-13T15:49:52.301Z,1.18
2017-05-13T15:52:20.674Z,1.14
2017-05-13T15:54:48.619Z,0.74
2017-05-13T15:57:17.573Z,0.92
2017-05-13T15:59:46.498Z,1.10
2017-05-13T16:02:15.163Z,1.10
2017-05-13T16:04:43.101Z,0.70
2017-05-13T16:07:12.207Z,1.40
2017-05-13T16:09:40.499Z,0.80
2017-05-13T16:12:09.407Z,0.70
2017-05-13T16:14:37.779Z,0.80
2017-05-13T16:17:06.854Z,0.98
2017-05-13T16:19:35.763Z,1.12
2017-05-13T16:22:04.556Z,1.46
2017-05-13T16:24:32.861Z,1.02
2017-05-13T16:27:00.815Z,0.98
2017-05-13T16:29:29.749Z,1.72
2017-05-13T16:31:58.618Z,1.00
2017-05-13T16:34:26.543Z,1.02
2017-05-13T16:36:55.467Z,1.14
2017-05-13T16:39:24.135Z,0.90
2017-05-13T16:41:52.852Z,1.12
2017-05-13T16:44:22.373Z,1.26
2017-05-13T16:46:50.683Z,1.10
2017-05-13T16:49:18.986Z,1.54
2017-05-13T16:51:47.340Z,1.04
2017-05-13T16:54:15.266Z,1.42
2017-05-13T16:56:43.567Z,1.02
2017-05-13T16:59:11.919Z,1.10
2017-05-13T17:01:40.961Z,1.76
2017-05-13T17:04:09.847Z,1.30
2017-05-13T17:06:38.778Z,1.36
2017-05-13T17:09:06.708Z,1.34
2017-05-13T17:11:35.003Z,2.20
2017-05-13T17:14:03.351Z,1.80
2017-05-13T17:16:31.650Z,3.72
2017-05-13T17:19:00.691Z,4.88
2017-05-13T17:21:28.671Z,6.10
2017-05-13T17:23:57.344Z,6.44
2017-05-13T17:26:25.646Z,3.16
2017-05-13T17:28:55.343Z,1.92
2017-05-13T17:31:24.218Z,1.40
2017-05-13T17:33:53.275Z,0.86
2017-05-13T17:36:21.279Z,1.36
2017-05-13T17:38:49.578Z,1.40
2017-05-13T17:41:17.887Z,1.32
2017-05-13T17:43:46.247Z,1.18
2017-05-13T17:46:14.170Z,0.92
2017-05-13T17:48:42.466Z,1.14
2017-05-13T17:51:11.530Z,1.00
2017-05-13T17:53:40.195Z,1.26
2017-05-13T17:56:08.127Z,1.30
2017-05-13T17:58:36.515Z,1.40
2017-05-13T18:01:05.411Z,1.30
2017-05-13T18:03:33.706Z,1.48
2017-05-13T18:06:02.799Z,1.54
2017-05-13T18:08:31.466Z,1.42
2017-05-13T18:10:59.763Z,1.16
2017-05-13T18:13:28.130Z,1.32
2017-05-13T18:15:57.166Z,0.98
2017-05-13T18:18:25.834Z,1.24
2017-05-13T18:20:54.559Z,1.20
2017-05-13T18:23:23.470Z,1.40
2017-05-13T18:25:52.372Z,1.44
2017-05-13T18:28:20.729Z,1.44
2017-05-13T18:30:49.798Z,1.32
2017-05-13T18:33:18.857Z,1.30
2017-05-13T18:35:46.844Z,1.80
2017-05-13T18:38:15.136Z,1.50
2017-05-13T18:40:43.434Z,1.30
2017-05-13T18:43:12.526Z,1.72
2017-05-13T18:45:40.450Z,1.20
2017-05-13T18:48:08.387Z,1.56
2017-05-13T18:50:37.483Z,1.76
2017-05-13T18:53:06.531Z,1.72
2017-05-13T18:55:34.830Z,1.66
2017-05-13T18:58:03.538Z,1.72
2017-05-13T19:00:31.834Z,2.34
2017-05-13T19:03:00.130Z,4.30
2017-05-13T19:05:28.470Z,6.44
2017-05-13T19:07:57.354Z,7.14
2017-05-13T19:10:26.018Z,7.30
2017-05-13T19:12:54.950Z,7.66
2017-05-13T19:15:23.626Z,9.22
2017-05-13T19:17:51.942Z,9.02
2017-05-13T19:20:19.936Z,10.88
2017-05-13T19:22:48.826Z,10.42
2017-05-13T19:25:17.730Z,10.10
2017-05-13T19:27:46.483Z,10.36
2017-05-13T19:30:14.783Z,10.76
2017-05-13T19:32:43.088Z,10.16
2017-05-13T19:35:11.430Z,10.96
2017-05-13T19:37:40.314Z,9.54
2017-05-13T19:40:09.206Z,11.22
2017-05-13T19:42:37.931Z,9.52
2017-05-13T19:45:06.235Z,9.80
2017-05-13T19:47:35.122Z,11.54
2017-05-13T19:50:03.854Z,10.34
2017-05-13T19:52:32.156Z,10.04
2017-05-13T19:55:00.458Z,10.74
2017-05-13T19:57:28.471Z,10.16
2017-05-13T19:59:56.779Z,9.62
2017-05-13T20:02:25.082Z,10.20
2017-05-13T20:04:54.182Z,9.72
2017-05-13T20:07:22.114Z,9.18
2017-05-13T20:09:50.806Z,9.84
2017-05-13T20:12:19.184Z,9.04
2017-05-13T20:14:47.491Z,10.02
2017-05-13T20:17:16.543Z,8.64
2017-05-13T20:19:45.630Z,9.04
2017-05-13T20:22:13.926Z,9.68
2017-05-13T20:24:42.962Z,9.88
2017-05-13T20:27:12.043Z,9.04
2017-05-13T20:29:40.928Z,10.02
2017-05-13T20:32:09.600Z,10.54
2017-05-13T20:34:38.255Z,8.96
2017-05-13T20:37:06.188Z,9.18
2017-05-13T20:39:34.495Z,8.92
2017-05-13T20:42:02.846Z,9.36
2017-05-13T20:44:30.783Z,8.64
2017-05-13T20:46:59.822Z,9.58
2017-05-13T20:49:28.186Z,10.06
2017-05-13T20:51:56.859Z,10.52
2017-05-13T20:54:25.164Z,9.48
2017-05-13T20:56:54.255Z,9.38
2017-05-13T20:59:22.558Z,10.42
2017-05-13T21:01:51.250Z,10.28
2017-05-13T21:04:19.677Z,10.66
2017-05-13T21:06:47.630Z,10.72
2017-05-13T21:09:15.932Z,10.82
2017-05-13T21:13:39.035Z,9.80
2017-05-13T21:16:07.963Z,18.58
2017-05-13T21:18:36.862Z,10.16
2017-05-13T21:21:05.590Z,10.34
2017-05-13T21:23:33.527Z,10.40
2017-05-13T21:26:02.414Z,11.08
2017-05-13T21:28:31.377Z,11.18
2017-05-13T21:30:59.686Z,12.62
2017-05-13T21:33:27.992Z,12.54
2017-05-13T21:35:56.063Z,14.00
2017-05-13T21:38:24.746Z,11.62
2017-05-13T21:43:46.310Z,11.30
2017-05-13T21:46:14.610Z,13.46
2017-05-13T21:48:42.916Z,12.78
2017-05-13T21:51:11.278Z,11.12
2017-05-13T21:53:39.950Z,12.88
2017-05-13T21:56:08.260Z,15.12
2017-05-13T21:58:37.374Z,13.96
2017-05-13T22:01:05.303Z,12.96
2017-05-13T22:03:33.235Z,12.62
2017-05-13T22:06:01.366Z,14.82
2017-05-13T22:08:29.298Z,15.20
2017-05-13T22:10:58.191Z,14.44
2017-05-13T22:13:26.640Z,14.32
2017-05-13T22:15:55.526Z,15.42
2017-05-13T22:18:23.854Z,13.66
2017-05-13T22:20:52.254Z,13.28
2017-05-13T22:23:20.938Z,12.68
2017-05-13T22:25:49.271Z,12.86
2017-05-13T22:28:18.494Z,14.76
2017-05-13T22:30:47.558Z,15.26
2017-05-13T22:33:15.863Z,14.66
2017-05-13T22:35:44.806Z,14.86
2017-05-13T22:38:13.482Z,15.34
2017-05-13T22:40:41.791Z,15.44
2017-05-13T22:43:10.159Z,16.66
2017-05-13T22:45:38.098Z,16.30
2017-05-13T22:48:06.404Z,16.16
2017-05-13T22:50:34.763Z,16.10
2017-05-13T22:53:03.438Z,16.48
2017-05-13T22:55:31.742Z,17.32
2017-05-13T22:57:59.738Z,17.00
2017-05-13T23:00:27.670Z,16.86
2017-05-13T23:02:55.970Z,16.98
2017-05-13T23:05:24.703Z,17.62
2017-05-13T23:07:53.025Z,17.32
2017-05-13T23:10:21.939Z,16.52
2017-05-13T23:12:51.039Z,16.82
2017-05-13T23:15:18.995Z,15.12
2017-05-13T23:17:47.302Z,17.08
2017-05-13T23:20:15.499Z,18.06
2017-05-13T23:22:43.799Z,19.68
2017-05-13T23:25:12.847Z,18.50
2017-05-13T23:27:41.199Z,20.58
2017-05-13T23:30:10.243Z,19.54
2017-05-13T23:32:39.310Z,19.18
2017-05-13T23:35:08.265Z,18.08
2017-05-13T23:37:37.165Z,18.96
2017-05-13T23:40:06.198Z,18.04
2017-05-13T23:42:34.552Z,18.10
2017-05-13T23:45:03.437Z,17.62
2017-05-13T23:47:31.741Z,18.40
2017-05-13T23:50:00.678Z,18.68
2017-05-13T23:52:28.987Z,19.04
2017-05-13T23:54:57.286Z,19.56
2017-05-13T23:57:25.290Z,19.64
2017-05-13T23:59:54.187Z,20.42
